sensor_id;sensor_type;location;lat;lon;timestamp;temperature;humidity
16829;DHT22;8531;48.078;11.968;2023-04-25T00:00:21;8.10;99.90
16829;DHT22;8531;48.078;11.968;2023-04-25T00:02:47;8.10;99.90
16829;DHT22;8531;48.078;11.968;2023-04-25T00:05:13;8.10;99.90
16829;DHT22;8531;48.078;11.968;2023-04-25T00:07:42;8.00;99.90
16829;DHT22;8531;48.078;11.968;2023-04-25T00:10:09;8.00;99.90
16829;DHT22;8531;48.078;11.968;2023-04-25T00:12:36;7.90;99.90
16829;DHT22;8531;48.078;11.968;2023-04-25T00:15:02;7.80;99.90
16829;DHT22;8531;48.078;11.968;2023-04-25T00:17:28;7.90;99.90
16829;DHT22;8531;48.078;11.968;2023-04-25T00:19:54;7.90;99.90
16829;DHT22;8531;48.078;11.968;2023-04-25T00:22:21;7.90;99.90
16829;DHT22;8531;48.078;11.968;2023-04-25T00:24:47;8.00;99.90
16829;DHT22;8531;48.078;11.968;2023-04-25T00:27:13;8.00;99.90
16829;DHT22;8531;48.078;11.968;2023-04-25T00:29:39;7.90;99.90
16829;DHT22;8531;48.078;11.968;2023-04-25T00:32:05;7.90;99.90
16829;DHT22;8531;48.078;11.968;2023-04-25T00:34:30;7.90;99.90
16829;DHT22;8531;48.078;11.968;2023-04-25T00:36:56;7.90;99.90
16829;DHT22;8531;48.078;11.968;2023-04-25T00:39:22;7.90;99.90
16829;DHT22;8531;48.078;11.968;2023-04-25T00:41:48;8.00;99.90
16829;DHT22;8531;48.078;11.968;2023-04-25T00:44:15;7.90;99.90
16829;DHT22;8531;48.078;11.968;2023-04-25T00:46:42;8.10;99.90
16829;DHT22;8531;48.078;11.968;2023-04-25T00:49:08;8.20;99.90
16829;DHT22;8531;48.078;11.968;2023-04-25T00:51:34;8.20;99.90
16829;DHT22;8531;48.078;11.968;2023-04-25T00:54:00;8.20;99.90
16829;DHT22;8531;48.078;11.968;2023-04-25T00:56:27;8.10;99.90
16829;DHT22;8531;48.078;11.968;2023-04-25T00:58:53;8.10;99.90
16829;DHT22;8531;48.078;11.968;2023-04-25T01:01:22;8.10;99.90
16829;DHT22;8531;48.078;11.968;2023-04-25T01:03:49;8.10;99.90
16829;DHT22;8531;48.078;11.968;2023-04-25T01:06:16;8.10;99.90
16829;DHT22;8531;48.078;11.968;2023-04-25T01:08:42;8.10;99.90
16829;DHT22;8531;48.078;11.968;2023-04-25T01:11:08;8.20;99.90
16829;DHT22;8531;48.078;11.968;2023-04-25T01:13:34;8.30;99.90
16829;DHT22;8531;48.078;11.968;2023-04-25T01:16:01;8.30;99.90
16829;DHT22;8531;48.078;11.968;2023-04-25T01:18:27;8.40;99.90
16829;DHT22;8531;48.078;11.968;2023-04-25T01:20:54;8.40;99.90
16829;DHT22;8531;48.078;11.968;2023-04-25T01:23:21;8.40;99.90
16829;DHT22;8531;48.078;11.968;2023-04-25T01:25:47;8.40;99.90
16829;DHT22;8531;48.078;11.968;2023-04-25T01:28:13;8.40;99.90
16829;DHT22;8531;48.078;11.968;2023-04-25T01:30:40;8.50;99.90
16829;DHT22;8531;48.078;11.968;2023-04-25T01:33:08;8.40;99.90
16829;DHT22;8531;48.078;11.968;2023-04-25T01:35:34;8.40;99.90
16829;DHT22;8531;48.078;11.968;2023-04-25T01:38:00;8.50;99.90
16829;DHT22;8531;48.078;11.968;2023-04-25T01:40:27;8.50;99.90
16829;DHT22;8531;48.078;11.968;2023-04-25T01:42:53;8.50;99.90
16829;DHT22;8531;48.078;11.968;2023-04-25T01:45:19;8.50;99.90
16829;DHT22;8531;48.078;11.968;2023-04-25T01:47:45;8.50;99.90
16829;DHT22;8531;48.078;11.968;2023-04-25T01:50:16;8.50;99.90
16829;DHT22;8531;48.078;11.968;2023-04-25T01:52:41;8.40;99.90
16829;DHT22;8531;48.078;11.968;2023-04-25T01:55:07;8.40;99.90
16829;DHT22;8531;48.078;11.968;2023-04-25T01:57:33;8.40;99.90
16829;DHT22;8531;48.078;11.968;2023-04-25T02:00:01;8.40;99.90
16829;DHT22;8531;48.078;11.968;2023-04-25T02:02:27;8.40;99.90
16829;DHT22;8531;48.078;11.968;2023-04-25T02:04:52;8.30;99.90
16829;DHT22;8531;48.078;11.968;2023-04-25T02:07:20;8.30;99.90
16829;DHT22;8531;48.078;11.968;2023-04-25T02:09:45;8.30;99.90
16829;DHT22;8531;48.078;11.968;2023-04-25T02:12:11;8.30;99.90
16829;DHT22;8531;48.078;11.968;2023-04-25T02:14:37;8.30;99.90
16829;DHT22;8531;48.078;11.968;2023-04-25T02:17:03;8.30;99.90
16829;DHT22;8531;48.078;11.968;2023-04-25T02:19:29;8.30;99.90
16829;DHT22;8531;48.078;11.968;2023-04-25T02:21:54;8.30;99.90
16829;DHT22;8531;48.078;11.968;2023-04-25T02:24:22;8.30;99.90
16829;DHT22;8531;48.078;11.968;2023-04-25T02:26:48;8.30;99.90
16829;DHT22;8531;48.078;11.968;2023-04-25T02:29:15;8.20;99.90
16829;DHT22;8531;48.078;11.968;2023-04-25T02:31:40;8.20;99.90
16829;DHT22;8531;48.078;11.968;2023-04-25T02:34:06;8.20;99.90
16829;DHT22;8531;48.078;11.968;2023-04-25T02:36:32;8.30;99.90
16829;DHT22;8531;48.078;11.968;2023-04-25T02:39:00;8.20;99.90
16829;DHT22;8531;48.078;11.968;2023-04-25T02:41:26;8.20;99.90
16829;DHT22;8531;48.078;11.968;2023-04-25T02:43:52;8.30;99.90
16829;DHT22;8531;48.078;11.968;2023-04-25T02:46:17;8.30;99.90
16829;DHT22;8531;48.078;11.968;2023-04-25T02:48:43;8.20;99.90
16829;DHT22;8531;48.078;11.968;2023-04-25T02:51:09;8.10;99.90
16829;DHT22;8531;48.078;11.968;2023-04-25T02:53:35;8.10;99.90
16829;DHT22;8531;48.078;11.968;2023-04-25T02:56:01;8.10;99.90
16829;DHT22;8531;48.078;11.968;2023-04-25T02:58:27;8.20;99.90
16829;DHT22;8531;48.078;11.968;2023-04-25T03:00:52;8.20;99.90
16829;DHT22;8531;48.078;11.968;2023-04-25T03:03:18;8.20;99.90
16829;DHT22;8531;48.078;11.968;2023-04-25T03:05:50;8.10;99.90
16829;DHT22;8531;48.078;11.968;2023-04-25T03:08:16;8.10;99.90
16829;DHT22;8531;48.078;11.968;2023-04-25T03:10:42;8.10;99.90
16829;DHT22;8531;48.078;11.968;2023-04-25T03:13:08;8.10;99.90
16829;DHT22;8531;48.078;11.968;2023-04-25T03:15:35;8.10;99.90
16829;DHT22;8531;48.078;11.968;2023-04-25T03:18:01;8.10;99.90
16829;DHT22;8531;48.078;11.968;2023-04-25T03:20:27;8.10;99.90
16829;DHT22;8531;48.078;11.968;2023-04-25T03:22:53;8.10;99.90
16829;DHT22;8531;48.078;11.968;2023-04-25T03:25:19;8.10;99.90
16829;DHT22;8531;48.078;11.968;2023-04-25T03:27:44;8.10;99.90
16829;DHT22;8531;48.078;11.968;2023-04-25T03:30:10;8.10;99.90
16829;DHT22;8531;48.078;11.968;2023-04-25T03:32:36;8.10;99.90
16829;DHT22;8531;48.078;11.968;2023-04-25T03:35:02;8.10;99.90
16829;DHT22;8531;48.078;11.968;2023-04-25T03:37:28;8.10;99.90
16829;DHT22;8531;48.078;11.968;2023-04-25T03:39:53;8.20;99.90
16829;DHT22;8531;48.078;11.968;2023-04-25T03:42:19;8.20;99.90
16829;DHT22;8531;48.078;11.968;2023-04-25T03:44:45;8.20;99.90
16829;DHT22;8531;48.078;11.968;2023-04-25T03:47:10;8.20;99.90
16829;DHT22;8531;48.078;11.968;2023-04-25T03:49:36;8.20;99.90
16829;DHT22;8531;48.078;11.968;2023-04-25T03:52:02;8.10;99.90
16829;DHT22;8531;48.078;11.968;2023-04-25T03:54:28;8.10;99.90
16829;DHT22;8531;48.078;11.968;2023-04-25T03:56:54;8.00;99.90
16829;DHT22;8531;48.078;11.968;2023-04-25T03:59:19;7.90;99.90
16829;DHT22;8531;48.078;11.968;2023-04-25T04:01:45;7.80;99.90
16829;DHT22;8531;48.078;11.968;2023-04-25T04:04:10;7.60;99.90
16829;DHT22;8531;48.078;11.968;2023-04-25T04:06:36;7.60;99.90
16829;DHT22;8531;48.078;11.968;2023-04-25T04:09:03;7.50;99.90
16829;DHT22;8531;48.078;11.968;2023-04-25T04:11:28;7.40;99.90
16829;DHT22;8531;48.078;11.968;2023-04-25T04:13:54;7.40;99.90
16829;DHT22;8531;48.078;11.968;2023-04-25T04:16:20;7.40;99.90
16829;DHT22;8531;48.078;11.968;2023-04-25T04:18:46;7.30;99.90
16829;DHT22;8531;48.078;11.968;2023-04-25T04:21:12;7.30;99.90
16829;DHT22;8531;48.078;11.968;2023-04-25T04:23:37;7.30;99.90
16829;DHT22;8531;48.078;11.968;2023-04-25T04:26:03;7.30;99.90
16829;DHT22;8531;48.078;11.968;2023-04-25T04:28:29;7.30;99.90
16829;DHT22;8531;48.078;11.968;2023-04-25T04:30:55;7.30;99.90
16829;DHT22;8531;48.078;11.968;2023-04-25T04:33:21;7.30;99.90
16829;DHT22;8531;48.078;11.968;2023-04-25T04:35:51;7.20;99.90
16829;DHT22;8531;48.078;11.968;2023-04-25T04:38:17;7.20;99.90
16829;DHT22;8531;48.078;11.968;2023-04-25T04:40:44;7.20;99.90
16829;DHT22;8531;48.078;11.968;2023-04-25T04:43:09;7.20;99.90
16829;DHT22;8531;48.078;11.968;2023-04-25T04:45:36;7.40;99.90
16829;DHT22;8531;48.078;11.968;2023-04-25T04:48:05;7.30;99.90
16829;DHT22;8531;48.078;11.968;2023-04-25T04:50:31;7.30;99.90
16829;DHT22;8531;48.078;11.968;2023-04-25T04:52:58;7.40;99.90
16829;DHT22;8531;48.078;11.968;2023-04-25T04:55:23;7.40;99.90
16829;DHT22;8531;48.078;11.968;2023-04-25T04:57:49;7.40;99.90
16829;DHT22;8531;48.078;11.968;2023-04-25T05:00:15;7.40;99.90
16829;DHT22;8531;48.078;11.968;2023-04-25T05:02:41;7.40;99.90
16829;DHT22;8531;48.078;11.968;2023-04-25T05:05:07;7.40;99.90
16829;DHT22;8531;48.078;11.968;2023-04-25T05:07:34;7.50;99.90
16829;DHT22;8531;48.078;11.968;2023-04-25T05:09:59;7.40;99.90
16829;DHT22;8531;48.078;11.968;2023-04-25T05:12:25;7.30;99.90
16829;DHT22;8531;48.078;11.968;2023-04-25T05:14:51;7.20;99.90
16829;DHT22;8531;48.078;11.968;2023-04-25T05:17:16;7.30;99.90
16829;DHT22;8531;48.078;11.968;2023-04-25T05:19:42;7.30;99.90
16829;DHT22;8531;48.078;11.968;2023-04-25T05:22:07;7.20;99.90
16829;DHT22;8531;48.078;11.968;2023-04-25T05:24:33;7.20;99.90
16829;DHT22;8531;48.078;11.968;2023-04-25T05:26:59;7.20;99.90
16829;DHT22;8531;48.078;11.968;2023-04-25T05:29:24;7.30;99.90
16829;DHT22;8531;48.078;11.968;2023-04-25T05:31:50;7.30;99.90
16829;DHT22;8531;48.078;11.968;2023-04-25T05:34:16;7.40;99.90
16829;DHT22;8531;48.078;11.968;2023-04-25T05:36:42;7.40;99.90
16829;DHT22;8531;48.078;11.968;2023-04-25T05:39:07;7.40;99.90
16829;DHT22;8531;48.078;11.968;2023-04-25T05:41:34;7.40;99.90
16829;DHT22;8531;48.078;11.968;2023-04-25T05:44:00;7.50;99.90
16829;DHT22;8531;48.078;11.968;2023-04-25T05:46:25;7.50;99.90
16829;DHT22;8531;48.078;11.968;2023-04-25T05:48:51;7.60;99.90
16829;DHT22;8531;48.078;11.968;2023-04-25T05:51:16;7.60;99.90
16829;DHT22;8531;48.078;11.968;2023-04-25T05:53:44;7.70;99.90
16829;DHT22;8531;48.078;11.968;2023-04-25T05:56:09;7.70;99.90
16829;DHT22;8531;48.078;11.968;2023-04-25T05:58:35;7.70;99.90
16829;DHT22;8531;48.078;11.968;2023-04-25T06:01:01;7.70;99.90
16829;DHT22;8531;48.078;11.968;2023-04-25T06:03:28;7.70;99.90
16829;DHT22;8531;48.078;11.968;2023-04-25T06:05:54;7.80;99.90
16829;DHT22;8531;48.078;11.968;2023-04-25T06:08:20;7.70;99.90
16829;DHT22;8531;48.078;11.968;2023-04-25T06:10:46;7.80;99.90
16829;DHT22;8531;48.078;11.968;2023-04-25T06:13:11;7.80;99.90
16829;DHT22;8531;48.078;11.968;2023-04-25T06:15:37;7.80;99.90
16829;DHT22;8531;48.078;11.968;2023-04-25T06:18:02;7.80;99.90
16829;DHT22;8531;48.078;11.968;2023-04-25T06:20:28;7.90;99.90
16829;DHT22;8531;48.078;11.968;2023-04-25T06:22:54;8.00;99.90
16829;DHT22;8531;48.078;11.968;2023-04-25T06:25:20;8.00;99.90
16829;DHT22;8531;48.078;11.968;2023-04-25T06:27:46;8.10;99.90
16829;DHT22;8531;48.078;11.968;2023-04-25T06:30:12;8.20;99.90
16829;DHT22;8531;48.078;11.968;2023-04-25T06:32:38;8.40;99.90
16829;DHT22;8531;48.078;11.968;2023-04-25T06:35:04;8.40;99.90
16829;DHT22;8531;48.078;11.968;2023-04-25T06:37:30;8.30;99.90
16829;DHT22;8531;48.078;11.968;2023-04-25T06:39:56;8.30;99.90
16829;DHT22;8531;48.078;11.968;2023-04-25T06:42:22;8.30;99.90
16829;DHT22;8531;48.078;11.968;2023-04-25T06:44:47;8.30;99.90
16829;DHT22;8531;48.078;11.968;2023-04-25T06:47:14;8.30;99.90
16829;DHT22;8531;48.078;11.968;2023-04-25T06:49:39;8.40;99.90
16829;DHT22;8531;48.078;11.968;2023-04-25T06:52:05;8.50;99.90
16829;DHT22;8531;48.078;11.968;2023-04-25T06:54:31;8.60;99.90
16829;DHT22;8531;48.078;11.968;2023-04-25T06:56:56;8.60;99.90
16829;DHT22;8531;48.078;11.968;2023-04-25T06:59:22;8.60;99.90
16829;DHT22;8531;48.078;11.968;2023-04-25T07:01:48;8.50;99.90
16829;DHT22;8531;48.078;11.968;2023-04-25T07:04:14;8.40;99.90
16829;DHT22;8531;48.078;11.968;2023-04-25T07:06:40;8.50;99.90
16829;DHT22;8531;48.078;11.968;2023-04-25T07:09:11;8.50;99.90
16829;DHT22;8531;48.078;11.968;2023-04-25T07:11:37;8.20;99.90
16829;DHT22;8531;48.078;11.968;2023-04-25T07:14:03;8.20;99.90
16829;DHT22;8531;48.078;11.968;2023-04-25T07:16:29;8.00;99.90
16829;DHT22;8531;48.078;11.968;2023-04-25T07:18:55;8.00;99.90
16829;DHT22;8531;48.078;11.968;2023-04-25T07:21:21;8.00;99.90
16829;DHT22;8531;48.078;11.968;2023-04-25T07:23:47;8.00;99.90
16829;DHT22;8531;48.078;11.968;2023-04-25T07:26:13;8.00;99.90
16829;DHT22;8531;48.078;11.968;2023-04-25T07:28:38;8.10;99.90
16829;DHT22;8531;48.078;11.968;2023-04-25T07:31:04;8.10;99.90
16829;DHT22;8531;48.078;11.968;2023-04-25T07:33:30;8.10;99.90
16829;DHT22;8531;48.078;11.968;2023-04-25T07:35:56;8.20;99.90
16829;DHT22;8531;48.078;11.968;2023-04-25T07:38:22;8.30;99.90
16829;DHT22;8531;48.078;11.968;2023-04-25T07:40:48;8.30;99.90
16829;DHT22;8531;48.078;11.968;2023-04-25T07:46:36;8.70;99.90
16829;DHT22;8531;48.078;11.968;2023-04-25T07:49:01;9.20;99.90
16829;DHT22;8531;48.078;11.968;2023-04-25T07:51:27;9.20;99.90
16829;DHT22;8531;48.078;11.968;2023-04-25T07:53:53;9.20;99.90
16829;DHT22;8531;48.078;11.968;2023-04-25T07:56:19;9.20;99.90
16829;DHT22;8531;48.078;11.968;2023-04-25T07:58:45;9.40;99.90
16829;DHT22;8531;48.078;11.968;2023-04-25T08:01:10;9.50;99.90
16829;DHT22;8531;48.078;11.968;2023-04-25T08:03:36;9.70;99.90
16829;DHT22;8531;48.078;11.968;2023-04-25T08:06:02;9.80;99.90
16829;DHT22;8531;48.078;11.968;2023-04-25T08:08:28;10.10;99.90
16829;DHT22;8531;48.078;11.968;2023-04-25T08:10:53;10.30;99.90
16829;DHT22;8531;48.078;11.968;2023-04-25T08:13:19;10.40;99.90
16829;DHT22;8531;48.078;11.968;2023-04-25T08:15:45;10.50;99.90
16829;DHT22;8531;48.078;11.968;2023-04-25T08:18:11;10.50;99.90
16829;DHT22;8531;48.078;11.968;2023-04-25T08:20:36;10.60;99.90
16829;DHT22;8531;48.078;11.968;2023-04-25T08:23:02;10.60;99.90
16829;DHT22;8531;48.078;11.968;2023-04-25T08:25:28;10.60;99.90
16829;DHT22;8531;48.078;11.968;2023-04-25T08:27:53;10.80;99.90
16829;DHT22;8531;48.078;11.968;2023-04-25T08:30:19;11.10;99.90
16829;DHT22;8531;48.078;11.968;2023-04-25T08:32:46;11.00;99.90
16829;DHT22;8531;48.078;11.968;2023-04-25T08:35:11;11.40;99.90
16829;DHT22;8531;48.078;11.968;2023-04-25T08:37:37;11.50;99.90
16829;DHT22;8531;48.078;11.968;2023-04-25T08:40:04;11.20;99.90
16829;DHT22;8531;48.078;11.968;2023-04-25T08:42:33;11.20;99.90
16829;DHT22;8531;48.078;11.968;2023-04-25T08:45:03;11.60;99.90
16829;DHT22;8531;48.078;11.968;2023-04-25T08:47:30;11.70;99.90
16829;DHT22;8531;48.078;11.968;2023-04-25T08:49:58;11.70;99.90
16829;DHT22;8531;48.078;11.968;2023-04-25T08:52:28;11.80;99.90
16829;DHT22;8531;48.078;11.968;2023-04-25T08:54:57;12.20;99.90
16829;DHT22;8531;48.078;11.968;2023-04-25T08:57:23;12.20;99.90
16829;DHT22;8531;48.078;11.968;2023-04-25T08:59:49;12.60;99.90
16829;DHT22;8531;48.078;11.968;2023-04-25T09:02:15;12.60;99.90
16829;DHT22;8531;48.078;11.968;2023-04-25T09:04:43;12.40;99.90
16829;DHT22;8531;48.078;11.968;2023-04-25T09:07:09;12.50;99.90
16829;DHT22;8531;48.078;11.968;2023-04-25T09:09:35;12.20;99.90
16829;DHT22;8531;48.078;11.968;2023-04-25T09:12:01;11.90;99.90
16829;DHT22;8531;48.078;11.968;2023-04-25T09:14:27;11.80;99.90
16829;DHT22;8531;48.078;11.968;2023-04-25T09:21:55;11.60;99.90
16829;DHT22;8531;48.078;11.968;2023-04-25T09:26:56;11.50;99.90
16829;DHT22;8531;48.078;11.968;2023-04-25T09:29:32;11.60;99.90
16829;DHT22;8531;48.078;11.968;2023-04-25T09:32:20;12.00;99.90
16829;DHT22;8531;48.078;11.968;2023-04-25T09:34:51;12.20;99.90
16829;DHT22;8531;48.078;11.968;2023-04-25T09:37:28;12.50;99.90
16829;DHT22;8531;48.078;11.968;2023-04-25T09:39:59;12.50;99.90
16829;DHT22;8531;48.078;11.968;2023-04-25T09:42:28;12.40;99.90
16829;DHT22;8531;48.078;11.968;2023-04-25T09:44:57;12.60;99.90
16829;DHT22;8531;48.078;11.968;2023-04-25T09:47:26;12.40;99.90
16829;DHT22;8531;48.078;11.968;2023-04-25T09:49:53;12.10;99.90
16829;DHT22;8531;48.078;11.968;2023-04-25T09:52:23;11.90;99.90
16829;DHT22;8531;48.078;11.968;2023-04-25T09:54:50;11.80;99.90
16829;DHT22;8531;48.078;11.968;2023-04-25T09:57:19;11.70;99.90
16829;DHT22;8531;48.078;11.968;2023-04-25T09:59:47;11.60;99.90
16829;DHT22;8531;48.078;11.968;2023-04-25T10:02:15;11.70;99.90
16829;DHT22;8531;48.078;11.968;2023-04-25T10:04:42;12.10;99.90
16829;DHT22;8531;48.078;11.968;2023-04-25T10:07:11;12.40;99.90
16829;DHT22;8531;48.078;11.968;2023-04-25T10:09:38;12.30;99.90
16829;DHT22;8531;48.078;11.968;2023-04-25T10:12:06;12.20;99.90
16829;DHT22;8531;48.078;11.968;2023-04-25T10:14:32;12.20;99.90
16829;DHT22;8531;48.078;11.968;2023-04-25T10:16:59;12.20;99.90
16829;DHT22;8531;48.078;11.968;2023-04-25T10:19:32;12.30;99.90
16829;DHT22;8531;48.078;11.968;2023-04-25T10:22:07;12.20;99.90
16829;DHT22;8531;48.078;11.968;2023-04-25T10:24:35;12.30;99.90
16829;DHT22;8531;48.078;11.968;2023-04-25T10:27:02;12.70;99.90
16829;DHT22;8531;48.078;11.968;2023-04-25T10:29:28;13.30;99.90
16829;DHT22;8531;48.078;11.968;2023-04-25T10:31:53;13.90;99.90
16829;DHT22;8531;48.078;11.968;2023-04-25T10:34:24;14.30;99.90
16829;DHT22;8531;48.078;11.968;2023-04-25T10:36:51;14.50;99.90
16829;DHT22;8531;48.078;11.968;2023-04-25T10:39:27;14.20;99.90
16829;DHT22;8531;48.078;11.968;2023-04-25T10:41:55;14.00;99.90
16829;DHT22;8531;48.078;11.968;2023-04-25T10:44:21;13.70;99.90
16829;DHT22;8531;48.078;11.968;2023-04-25T10:46:47;13.90;99.90
16829;DHT22;8531;48.078;11.968;2023-04-25T10:49:42;13.60;99.90
16829;DHT22;8531;48.078;11.968;2023-04-25T10:52:26;13.30;99.90
16829;DHT22;8531;48.078;11.968;2023-04-25T10:54:55;13.00;99.90
16829;DHT22;8531;48.078;11.968;2023-04-25T10:57:31;13.20;99.90
16829;DHT22;8531;48.078;11.968;2023-04-25T11:00:19;13.80;99.90
16829;DHT22;8531;48.078;11.968;2023-04-25T11:02:48;13.90;99.90
16829;DHT22;8531;48.078;11.968;2023-04-25T11:05:32;13.70;99.90
16829;DHT22;8531;48.078;11.968;2023-04-25T11:07:58;13.50;99.90
16829;DHT22;8531;48.078;11.968;2023-04-25T11:10:32;13.00;99.90
16829;DHT22;8531;48.078;11.968;2023-04-25T11:12:58;13.00;99.90
16829;DHT22;8531;48.078;11.968;2023-04-25T11:15:26;13.20;99.90
16829;DHT22;8531;48.078;11.968;2023-04-25T11:17:55;13.20;99.90
16829;DHT22;8531;48.078;11.968;2023-04-25T11:20:22;13.30;99.90
16829;DHT22;8531;48.078;11.968;2023-04-25T11:22:48;13.40;99.90
16829;DHT22;8531;48.078;11.968;2023-04-25T11:25:15;13.40;99.90
16829;DHT22;8531;48.078;11.968;2023-04-25T11:27:55;13.20;99.90
16829;DHT22;8531;48.078;11.968;2023-04-25T11:30:25;12.30;99.90
16829;DHT22;8531;48.078;11.968;2023-04-25T11:32:51;11.40;99.90
16829;DHT22;8531;48.078;11.968;2023-04-25T11:35:18;10.70;99.90
16829;DHT22;8531;48.078;11.968;2023-04-25T11:37:45;10.00;99.90
16829;DHT22;8531;48.078;11.968;2023-04-25T11:40:11;9.60;99.90
16829;DHT22;8531;48.078;11.968;2023-04-25T11:42:38;9.10;99.90
16829;DHT22;8531;48.078;11.968;2023-04-25T11:45:05;9.00;99.90
16829;DHT22;8531;48.078;11.968;2023-04-25T11:47:32;8.80;99.90
16829;DHT22;8531;48.078;11.968;2023-04-25T11:49:59;8.90;99.90
16829;DHT22;8531;48.078;11.968;2023-04-25T11:52:37;9.00;99.90
16829;DHT22;8531;48.078;11.968;2023-04-25T11:57:38;9.00;99.90
16829;DHT22;8531;48.078;11.968;2023-04-25T12:00:08;9.00;99.90
16829;DHT22;8531;48.078;11.968;2023-04-25T12:02:35;9.10;99.90
16829;DHT22;8531;48.078;11.968;2023-04-25T12:05:01;9.20;99.90
16829;DHT22;8531;48.078;11.968;2023-04-25T12:07:31;9.30;99.90
16829;DHT22;8531;48.078;11.968;2023-04-25T12:09:57;9.30;99.90
16829;DHT22;8531;48.078;11.968;2023-04-25T12:12:27;9.30;99.90
16829;DHT22;8531;48.078;11.968;2023-04-25T12:15:17;9.40;99.90
16829;DHT22;8531;48.078;11.968;2023-04-25T12:17:50;9.40;99.90
16829;DHT22;8531;48.078;11.968;2023-04-25T12:20:18;9.50;99.90
16829;DHT22;8531;48.078;11.968;2023-04-25T12:22:46;9.60;99.90
16829;DHT22;8531;48.078;11.968;2023-04-25T12:25:13;9.50;99.90
16829;DHT22;8531;48.078;11.968;2023-04-25T12:27:41;9.30;99.90
16829;DHT22;8531;48.078;11.968;2023-04-25T12:30:08;9.20;99.90
16829;DHT22;8531;48.078;11.968;2023-04-25T12:32:34;9.20;99.90
16829;DHT22;8531;48.078;11.968;2023-04-25T12:34:59;9.20;99.90
16829;DHT22;8531;48.078;11.968;2023-04-25T12:37:25;9.20;99.90
16829;DHT22;8531;48.078;11.968;2023-04-25T12:39:51;9.20;99.90
16829;DHT22;8531;48.078;11.968;2023-04-25T12:42:17;9.20;99.90
16829;DHT22;8531;48.078;11.968;2023-04-25T12:44:42;9.20;99.90
16829;DHT22;8531;48.078;11.968;2023-04-25T12:47:08;9.20;99.90
16829;DHT22;8531;48.078;11.968;2023-04-25T12:49:34;9.20;99.90
16829;DHT22;8531;48.078;11.968;2023-04-25T12:52:00;9.20;99.90
16829;DHT22;8531;48.078;11.968;2023-04-25T12:54:25;9.20;99.90
16829;DHT22;8531;48.078;11.968;2023-04-25T12:56:51;9.20;99.90
16829;DHT22;8531;48.078;11.968;2023-04-25T12:59:18;9.30;99.90
16829;DHT22;8531;48.078;11.968;2023-04-25T13:01:45;9.50;99.90
16829;DHT22;8531;48.078;11.968;2023-04-25T13:04:10;9.40;99.90
16829;DHT22;8531;48.078;11.968;2023-04-25T13:06:36;9.30;99.90
16829;DHT22;8531;48.078;11.968;2023-04-25T13:09:02;9.10;99.90
16829;DHT22;8531;48.078;11.968;2023-04-25T13:11:28;9.20;99.90
16829;DHT22;8531;48.078;11.968;2023-04-25T13:13:55;9.30;99.90
16829;DHT22;8531;48.078;11.968;2023-04-25T13:16:21;9.40;99.90
16829;DHT22;8531;48.078;11.968;2023-04-25T13:18:47;9.50;99.90
16829;DHT22;8531;48.078;11.968;2023-04-25T13:21:13;9.60;99.90
16829;DHT22;8531;48.078;11.968;2023-04-25T13:23:39;9.70;99.90
16829;DHT22;8531;48.078;11.968;2023-04-25T13:26:06;9.70;99.90
16829;DHT22;8531;48.078;11.968;2023-04-25T13:28:31;9.80;99.90
16829;DHT22;8531;48.078;11.968;2023-04-25T13:30:57;10.00;99.90
16829;DHT22;8531;48.078;11.968;2023-04-25T13:33:23;10.00;99.90
16829;DHT22;8531;48.078;11.968;2023-04-25T13:35:49;9.90;99.90
16829;DHT22;8531;48.078;11.968;2023-04-25T13:38:25;9.80;99.90
16829;DHT22;8531;48.078;11.968;2023-04-25T13:40:51;9.60;99.90
16829;DHT22;8531;48.078;11.968;2023-04-25T13:43:21;9.50;99.90
16829;DHT22;8531;48.078;11.968;2023-04-25T13:45:51;9.30;99.90
16829;DHT22;8531;48.078;11.968;2023-04-25T13:48:18;9.10;99.90
16829;DHT22;8531;48.078;11.968;2023-04-25T13:50:44;9.20;99.90
16829;DHT22;8531;48.078;11.968;2023-04-25T13:53:11;9.30;99.90
16829;DHT22;8531;48.078;11.968;2023-04-25T13:55:37;9.20;99.90
16829;DHT22;8531;48.078;11.968;2023-04-25T13:58:04;9.20;99.90
16829;DHT22;8531;48.078;11.968;2023-04-25T14:00:35;9.10;99.90
16829;DHT22;8531;48.078;11.968;2023-04-25T14:03:00;8.80;99.90
16829;DHT22;8531;48.078;11.968;2023-04-25T14:05:30;8.90;99.90
16829;DHT22;8531;48.078;11.968;2023-04-25T14:07:56;8.80;99.90
16829;DHT22;8531;48.078;11.968;2023-04-25T14:10:22;8.60;99.90
16829;DHT22;8531;48.078;11.968;2023-04-25T14:12:47;8.40;99.90
16829;DHT22;8531;48.078;11.968;2023-04-25T14:15:13;8.50;99.90
16829;DHT22;8531;48.078;11.968;2023-04-25T14:17:39;8.60;99.90
16829;DHT22;8531;48.078;11.968;2023-04-25T14:20:05;8.60;99.90
16829;DHT22;8531;48.078;11.968;2023-04-25T14:22:32;8.60;99.90
16829;DHT22;8531;48.078;11.968;2023-04-25T14:24:58;8.50;99.90
16829;DHT22;8531;48.078;11.968;2023-04-25T14:27:23;8.50;99.90
16829;DHT22;8531;48.078;11.968;2023-04-25T14:29:50;8.50;99.90
16829;DHT22;8531;48.078;11.968;2023-04-25T14:32:16;8.40;99.90
16829;DHT22;8531;48.078;11.968;2023-04-25T14:34:41;8.40;99.90
16829;DHT22;8531;48.078;11.968;2023-04-25T14:37:07;8.40;99.90
16829;DHT22;8531;48.078;11.968;2023-04-25T14:39:33;8.40;99.90
16829;DHT22;8531;48.078;11.968;2023-04-25T14:41:58;8.50;99.90
16829;DHT22;8531;48.078;11.968;2023-04-25T14:44:24;8.40;99.90
16829;DHT22;8531;48.078;11.968;2023-04-25T14:46:50;8.40;99.90
16829;DHT22;8531;48.078;11.968;2023-04-25T14:49:17;8.30;99.90
16829;DHT22;8531;48.078;11.968;2023-04-25T14:51:42;8.00;99.90
16829;DHT22;8531;48.078;11.968;2023-04-25T14:54:08;7.80;99.90
16829;DHT22;8531;48.078;11.968;2023-04-25T14:56:34;7.80;99.90
16829;DHT22;8531;48.078;11.968;2023-04-25T14:59:00;7.70;99.90
16829;DHT22;8531;48.078;11.968;2023-04-25T15:01:25;7.90;99.90
16829;DHT22;8531;48.078;11.968;2023-04-25T15:03:51;8.00;99.90
16829;DHT22;8531;48.078;11.968;2023-04-25T15:06:17;7.70;99.90
16829;DHT22;8531;48.078;11.968;2023-04-25T15:08:43;7.80;99.90
16829;DHT22;8531;48.078;11.968;2023-04-25T15:11:08;8.00;99.90
16829;DHT22;8531;48.078;11.968;2023-04-25T15:13:36;8.10;99.90
16829;DHT22;8531;48.078;11.968;2023-04-25T15:16:02;8.30;99.90
16829;DHT22;8531;48.078;11.968;2023-04-25T15:18:27;8.40;99.90
16829;DHT22;8531;48.078;11.968;2023-04-25T15:20:53;8.40;99.90
16829;DHT22;8531;48.078;11.968;2023-04-25T15:23:20;8.40;99.90
16829;DHT22;8531;48.078;11.968;2023-04-25T15:25:46;8.40;99.90
16829;DHT22;8531;48.078;11.968;2023-04-25T15:28:13;8.50;99.90
16829;DHT22;8531;48.078;11.968;2023-04-25T15:30:42;8.60;99.90
16829;DHT22;8531;48.078;11.968;2023-04-25T15:33:08;8.50;99.90
16829;DHT22;8531;48.078;11.968;2023-04-25T15:35:34;8.50;99.90
16829;DHT22;8531;48.078;11.968;2023-04-25T15:37:59;8.40;99.90
16829;DHT22;8531;48.078;11.968;2023-04-25T15:40:25;8.40;99.90
16829;DHT22;8531;48.078;11.968;2023-04-25T15:42:51;8.50;99.90
16829;DHT22;8531;48.078;11.968;2023-04-25T15:45:19;8.60;99.90
16829;DHT22;8531;48.078;11.968;2023-04-25T15:47:45;8.60;99.90
16829;DHT22;8531;48.078;11.968;2023-04-25T15:50:11;8.70;99.90
16829;DHT22;8531;48.078;11.968;2023-04-25T15:52:38;8.70;99.90